Time;durP1;ratioP1;P1;durP2;ratioP2;P2;SDS_P1;SDS_P2;PMS_P1;PMS_P2;Temp;Humidity;BMP_temperature;BMP_pressure;BME280_temperature;BME280_humidity;BME280_pressure;Samples;Min_cycle;Max_cycle;Signal;HPM_P1;HPM_P2
2022/12/20 00:00:11;;;;;;;;;;;18.60;43.20;;;;;;4952931;29;19976;-53
2022/12/20 00:02:37;;;;;;;;;;;18.50;43.10;;;;;;4952980;29;19917;-53
2022/12/20 00:05:02;;;;;;;;;;;18.50;43.20;;;;;;4951474;28;19972;-52
2022/12/20 00:07:28;;;;;;;;;;;18.50;43.20;;;;;;4962447;28;19918;-53
2022/12/20 00:09:53;;;;;;;;;;;18.50;43.20;;;;;;4957772;28;20406;-52
2022/12/20 00:12:19;;;;;;;;;;;18.40;43.10;;;;;;4953060;29;20378;-52
2022/12/20 00:14:44;;;;;;;;;;;18.40;43.10;;;;;;4952572;29;19911;-52
2022/12/20 00:17:10;;;;;;;;;;;18.40;43.20;;;;;;4952924;29;20385;-52
2022/12/20 00:19:35;;;;;;;;;;;18.30;43.10;;;;;;4952826;28;19914;-52
2022/12/20 00:22:00;;;;;;;;;;;18.30;43.20;;;;;;4952397;29;19950;-52
2022/12/20 00:24:26;;;;;;;;;;;18.30;43.00;;;;;;4951891;28;19954;-52
2022/12/20 00:26:51;;;;;;;;;;;18.30;43.30;;;;;;4952055;29;19911;-52
2022/12/20 00:29:17;;;;;;;;;;;18.20;43.10;;;;;;4951956;29;19926;-52
2022/12/20 00:31:42;;;;;;;;;;;18.20;43.20;;;;;;4952765;28;19910;-52
2022/12/20 00:34:08;;;;;;;;;;;18.20;43.30;;;;;;4941425;28;19914;-53
2022/12/20 00:36:33;;;;;;;;;;;18.20;43.30;;;;;;4951180;29;20030;-53
2022/12/20 00:38:59;;;;;;;;;;;18.20;43.40;;;;;;4951711;29;19953;-52
2022/12/20 00:41:28;;;;;;;;;;;18.10;43.30;;;;;;4952399;28;19925;-52
2022/12/20 00:43:54;;;;;;;;;;;18.10;43.50;;;;;;4951681;28;19911;-52
2022/12/20 00:46:19;;;;;;;;;;;18.10;43.50;;;;;;4952362;29;19915;-52
2022/12/20 00:48:45;;;;;;;;;;;18.10;43.60;;;;;;4948558;28;19969;-52
2022/12/20 00:51:15;;;;;;;;;;;18.00;43.50;;;;;;4962495;28;20005;-52
2022/12/20 00:53:40;;;;;;;;;;;18.00;43.80;;;;;;4959269;28;20001;-54
2022/12/20 00:56:06;;;;;;;;;;;18.00;43.60;;;;;;4954623;28;20558;-52
2022/12/20 00:58:35;;;;;;;;;;;18.00;43.80;;;;;;4971541;28;19918;-52
2022/12/20 01:01:00;;;;;;;;;;;17.90;43.80;;;;;;4971498;28;19910;-53
2022/12/20 01:03:26;;;;;;;;;;;17.90;43.90;;;;;;4971342;28;19919;-53
2022/12/20 01:05:55;;;;;;;;;;;17.90;43.90;;;;;;4971072;28;19929;-51
2022/12/20 01:08:20;;;;;;;;;;;17.90;44.10;;;;;;4951758;28;19937;-52
2022/12/20 01:10:46;;;;;;;;;;;17.80;44.00;;;;;;4951510;28;20298;-54
2022/12/20 01:13:12;;;;;;;;;;;17.80;44.10;;;;;;4951512;29;19911;-52
2022/12/20 01:15:37;;;;;;;;;;;17.80;44.10;;;;;;4951770;29;19910;-52
2022/12/20 01:18:02;;;;;;;;;;;17.80;44.10;;;;;;4952042;29;20001;-52
2022/12/20 01:20:28;;;;;;;;;;;17.80;44.30;;;;;;4951665;29;19917;-54
2022/12/20 01:22:53;;;;;;;;;;;17.70;44.10;;;;;;4951961;29;19940;-52
2022/12/20 01:25:19;;;;;;;;;;;17.70;44.20;;;;;;4950505;29;20354;-52
2022/12/20 01:27:45;;;;;;;;;;;17.70;44.20;;;;;;4951167;29;20489;-52
2022/12/20 01:30:10;;;;;;;;;;;17.70;44.10;;;;;;4951899;28;20363;-52
2022/12/20 01:32:38;;;;;;;;;;;17.70;44.30;;;;;;4950939;29;22250;-52
2022/12/20 01:35:03;;;;;;;;;;;17.70;44.30;;;;;;4951594;29;19917;-52
2022/12/20 01:37:29;;;;;;;;;;;17.70;44.50;;;;;;4950637;29;20013;-52
2022/12/20 01:39:55;;;;;;;;;;;17.60;44.40;;;;;;4937948;28;19925;-52
2022/12/20 01:42:20;;;;;;;;;;;17.60;44.40;;;;;;4950179;29;19919;-52
2022/12/20 01:44:55;;;;;;;;;;;17.60;44.40;;;;;;4951012;29;19961;-52
2022/12/20 01:47:20;;;;;;;;;;;17.50;44.50;;;;;;4950397;28;19965;-53
2022/12/20 01:49:46;;;;;;;;;;;17.60;44.50;;;;;;4943141;29;20267;-53
2022/12/20 01:52:16;;;;;;;;;;;17.60;45.20;;;;;;4958698;28;19915;-53
2022/12/20 01:54:49;;;;;;;;;;;17.50;44.40;;;;;;4950939;28;19917;-53
2022/12/20 01:57:18;;;;;;;;;;;17.50;44.50;;;;;;4950985;29;19918;-52
2022/12/20 01:59:44;;;;;;;;;;;17.50;44.50;;;;;;4951071;29;19937;-52
2022/12/20 02:02:10;;;;;;;;;;;17.50;44.50;;;;;;4951237;29;20259;-53
2022/12/20 02:04:35;;;;;;;;;;;17.50;44.70;;;;;;4950759;28;19925;-51
2022/12/20 02:07:01;;;;;;;;;;;17.40;44.70;;;;;;4950692;29;19919;-53
2022/12/20 02:09:26;;;;;;;;;;;17.50;44.70;;;;;;4950471;29;20009;-53
2022/12/20 02:12:11;;;;;;;;;;;17.50;44.70;;;;;;4949134;28;20382;-53
2022/12/20 02:14:49;;;;;;;;;;;17.50;45.20;;;;;;4936084;28;20390;-53
2022/12/20 02:17:30;;;;;;;;;;;17.60;44.20;;;;;;4951300;28;19953;-53
2022/12/20 02:20:03;;;;;;;;;;;17.90;44.20;;;;;;4934996;28;19915;-53
2022/12/20 02:22:41;;;;;;;;;;;18.20;43.70;;;;;;4966869;28;19930;-53
2022/12/20 02:25:25;;;;;;;;;;;18.50;43.10;;;;;;4952882;28;19918;-53
2022/12/20 02:28:00;;;;;;;;;;;19.10;42.10;;;;;;4950233;29;19941;-53
2022/12/20 02:30:26;;;;;;;;;;;19.70;40.90;;;;;;5020287;28;20378;-54
2022/12/20 02:32:57;;;;;;;;;;;20.30;39.90;;;;;;4953268;28;19969;-52
2022/12/20 02:35:24;;;;;;;;;;;20.80;39.20;;;;;;4953789;29;20321;-52
2022/12/20 02:37:56;;;;;;;;;;;21.20;38.40;;;;;;4953693;28;19942;-54
2022/12/20 02:40:23;;;;;;;;;;;21.60;37.90;;;;;;4953095;28;19914;-52
2022/12/20 02:42:50;;;;;;;;;;;21.90;37.30;;;;;;4953858;28;20358;-52
2022/12/20 02:45:15;;;;;;;;;;;22.20;36.80;;;;;;4937147;28;19918;-53
2022/12/20 02:47:48;;;;;;;;;;;22.30;36.40;;;;;;4960757;28;20009;-52
2022/12/20 02:50:16;;;;;;;;;;;22.50;36.40;;;;;;4940125;28;20022;-52
2022/12/20 02:52:41;;;;;;;;;;;22.50;36.20;;;;;;4936820;29;20350;-53
2022/12/20 02:55:07;;;;;;;;;;;22.50;36.30;;;;;;4953772;28;19953;-52
2022/12/20 02:57:32;;;;;;;;;;;22.40;36.50;;;;;;4954253;29;19910;-53
2022/12/20 03:00:03;;;;;;;;;;;22.30;36.50;;;;;;4953017;28;20028;-53
2022/12/20 03:03:21;;;;;;;;;;;22.10;36.90;;;;;;5020250;28;19914;-52
2022/12/20 03:05:14;;;;;;;;;;;21.80;37.40;;;;;;4953327;28;19927;-52
2022/12/20 03:07:39;;;;;;;;;;;21.50;37.90;;;;;;4953790;28;19911;-52
2022/12/20 03:10:05;;;;;;;;;;;21.30;38.40;;;;;;4953470;29;19956;-54
2022/12/20 03:12:30;;;;;;;;;;;21.10;38.80;;;;;;4953968;29;19918;-53
2022/12/20 03:14:56;;;;;;;;;;;20.90;39.10;;;;;;4952802;29;19925;-53
2022/12/20 03:17:21;;;;;;;;;;;20.70;39.30;;;;;;4953646;29;19910;-53
2022/12/20 03:19:47;;;;;;;;;;;20.70;39.60;;;;;;4953636;29;19922;-53
2022/12/20 03:22:12;;;;;;;;;;;20.60;39.80;;;;;;4953428;28;20001;-52
2022/12/20 03:24:38;;;;;;;;;;;20.50;39.90;;;;;;4953396;28;20001;-52
2022/12/20 03:27:03;;;;;;;;;;;20.50;40.00;;;;;;4953289;29;19915;-53
2022/12/20 03:29:29;;;;;;;;;;;20.50;40.00;;;;;;4953109;28;19925;-53
2022/12/20 03:31:54;;;;;;;;;;;20.60;39.90;;;;;;4952057;28;19921;-52
2022/12/20 03:34:20;;;;;;;;;;;20.60;39.80;;;;;;4953600;28;19957;-52
2022/12/20 03:36:45;;;;;;;;;;;20.60;40.30;;;;;;4953211;28;19915;-52
2022/12/20 03:39:10;;;;;;;;;;;20.80;39.60;;;;;;4952752;28;19910;-52
2022/12/20 03:41:36;;;;;;;;;;;20.90;39.20;;;;;;4952527;28;19972;-51
2022/12/20 03:44:01;;;;;;;;;;;20.90;39.20;;;;;;4952481;29;19911;-52
2022/12/20 03:46:27;;;;;;;;;;;21.00;39.10;;;;;;4952483;29;19915;-51
2022/12/20 03:48:52;;;;;;;;;;;21.00;39.00;;;;;;4953568;29;19917;-52
2022/12/20 03:51:18;;;;;;;;;;;21.10;39.00;;;;;;4968505;28;19916;-54
2022/12/20 03:53:43;;;;;;;;;;;21.00;39.00;;;;;;5054564;28;19913;-52
2022/12/20 03:56:09;;;;;;;;;;;21.10;38.90;;;;;;5021957;28;19914;-53
2022/12/20 03:58:34;;;;;;;;;;;21.10;39.00;;;;;;4952243;29;20020;-52
2022/12/20 04:00:59;;;;;;;;;;;21.20;38.90;;;;;;4951816;28;19950;-52
2022/12/20 04:03:25;;;;;;;;;;;21.30;38.70;;;;;;4952790;28;19919;-53
2022/12/20 04:05:50;;;;;;;;;;;21.40;38.60;;;;;;4952188;28;19926;-53
2022/12/20 04:08:16;;;;;;;;;;;21.40;38.40;;;;;;4944550;28;19919;-53
2022/12/20 04:13:25;;;;;;;;;;;21.50;38.40;;;;;;4951716;29;19925;-53
2022/12/20 04:15:51;;;;;;;;;;;21.60;38.30;;;;;;4951855;28;20287;-53
2022/12/20 04:18:16;;;;;;;;;;;21.60;38.20;;;;;;4952360;29;20290;-54
2022/12/20 04:20:42;;;;;;;;;;;21.60;38.20;;;;;;4952088;28;20401;-53
2022/12/20 04:23:07;;;;;;;;;;;21.60;38.30;;;;;;4952350;28;20385;-53
2022/12/20 04:25:32;;;;;;;;;;;21.60;38.30;;;;;;4951465;28;19922;-53
2022/12/20 04:27:58;;;;;;;;;;;21.60;38.20;;;;;;4951804;28;19922;-52
2022/12/20 04:30:23;;;;;;;;;;;21.50;38.30;;;;;;4951600;28;19922;-52
2022/12/20 04:32:53;;;;;;;;;;;21.50;38.50;;;;;;4952635;28;20001;-53
2022/12/20 04:35:19;;;;;;;;;;;21.40;38.50;;;;;;4949331;28;19919;-52
2022/12/20 04:37:44;;;;;;;;;;;21.40;38.50;;;;;;4942840;28;19915;-52
2022/12/20 04:40:10;;;;;;;;;;;21.50;38.60;;;;;;4951858;28;20317;-53
2022/12/20 04:42:35;;;;;;;;;;;21.40;38.70;;;;;;4951983;29;19915;-52
2022/12/20 04:45:03;;;;;;;;;;;21.40;38.80;;;;;;4952003;28;19914;-53
2022/12/20 04:47:28;;;;;;;;;;;21.30;38.70;;;;;;4951297;28;19915;-53
2022/12/20 04:49:53;;;;;;;;;;;21.30;38.90;;;;;;4951934;28;19929;-52
2022/12/20 04:55:03;;;;;;;;;;;21.30;39.00;;;;;;4951519;29;19973;-53
2022/12/20 04:57:28;;;;;;;;;;;21.30;39.00;;;;;;4952062;29;19914;-52
2022/12/20 04:59:54;;;;;;;;;;;21.20;39.00;;;;;;4951280;28;19915;-52
2022/12/20 05:02:19;;;;;;;;;;;21.20;39.10;;;;;;4950627;28;19915;-52
2022/12/20 05:04:45;;;;;;;;;;;21.20;39.10;;;;;;4951683;28;19919;-51
2022/12/20 05:07:10;;;;;;;;;;;21.20;39.10;;;;;;4946462;28;19919;-54
2022/12/20 05:09:36;;;;;;;;;;;21.20;39.10;;;;;;4941190;28;19927;-52
2022/12/20 05:12:01;;;;;;;;;;;21.20;39.10;;;;;;4951388;28;19941;-53
2022/12/20 05:14:26;;;;;;;;;;;21.40;39.00;;;;;;4950726;29;19918;-52
2022/12/20 05:16:52;;;;;;;;;;;21.40;38.90;;;;;;4951857;28;19957;-52
2022/12/20 05:19:17;;;;;;;;;;;21.40;38.80;;;;;;4951385;28;19918;-52
2022/12/20 05:27:11;;;;;;;;;;;21.50;38.60;;;;;;4951407;29;19983;-52
2022/12/20 05:29:37;;;;;;;;;;;21.60;38.70;;;;;;4950922;28;20362;-52
2022/12/20 05:32:02;;;;;;;;;;;21.50;38.80;;;;;;4951703;28;20402;-52
2022/12/20 05:34:27;;;;;;;;;;;21.50;38.80;;;;;;4949621;28;20465;-53
2022/12/20 05:36:53;;;;;;;;;;;21.50;38.80;;;;;;4950965;28;20378;-52
2022/12/20 05:39:18;;;;;;;;;;;21.50;38.80;;;;;;4950949;28;20382;-53
2022/12/20 05:41:44;;;;;;;;;;;21.50;38.80;;;;;;4951320;28;20017;-53
2022/12/20 05:44:09;;;;;;;;;;;21.40;38.90;;;;;;4949895;28;19976;-53
2022/12/20 05:46:35;;;;;;;;;;;21.50;38.80;;;;;;4951263;28;19915;-53
2022/12/20 05:49:00;;;;;;;;;;;21.50;38.90;;;;;;4945972;29;19977;-52
2022/12/20 05:51:26;;;;;;;;;;;21.40;39.00;;;;;;4972358;28;19917;-53
2022/12/20 05:53:51;;;;;;;;;;;21.30;39.10;;;;;;4991206;28;20053;-53
2022/12/20 05:56:17;;;;;;;;;;;21.30;39.10;;;;;;4950908;29;20353;-53
2022/12/20 05:58:43;;;;;;;;;;;21.20;39.30;;;;;;4946144;28;20437;-52
2022/12/20 06:01:09;;;;;;;;;;;21.20;39.30;;;;;;4932557;28;19915;-53
2022/12/20 06:03:35;;;;;;;;;;;21.20;39.30;;;;;;4933747;28;19911;-52
2022/12/20 06:06:00;;;;;;;;;;;21.20;39.30;;;;;;4943193;29;19923;-52
2022/12/20 06:08:26;;;;;;;;;;;21.30;39.30;;;;;;4948114;28;20413;-53
2022/12/20 06:10:51;;;;;;;;;;;21.30;39.20;;;;;;4952358;28;19925;-53
2022/12/20 06:13:17;;;;;;;;;;;21.40;39.10;;;;;;4954258;29;19914;-53
2022/12/20 06:15:42;;;;;;;;;;;21.50;39.00;;;;;;4954783;28;19950;-53
2022/12/20 06:18:08;;;;;;;;;;;21.50;39.00;;;;;;4954044;28;19992;-53
2022/12/20 06:20:34;;;;;;;;;;;21.50;38.90;;;;;;4954453;29;19925;-53
2022/12/20 06:22:59;;;;;;;;;;;21.60;38.90;;;;;;4954552;28;19918;-53
2022/12/20 06:25:24;;;;;;;;;;;21.60;38.80;;;;;;4954445;28;19914;-53
2022/12/20 06:27:50;;;;;;;;;;;21.60;38.70;;;;;;4953530;29;19918;-54
2022/12/20 06:30:15;;;;;;;;;;;21.60;39.00;;;;;;4954273;29;19921;-52
2022/12/20 06:32:41;;;;;;;;;;;21.50;38.80;;;;;;4952422;28;19948;-53
2022/12/20 06:35:06;;;;;;;;;;;21.60;38.80;;;;;;4952469;28;19929;-52
2022/12/20 06:37:32;;;;;;;;;;;21.60;38.90;;;;;;4954063;28;19937;-53
2022/12/20 06:39:58;;;;;;;;;;;21.60;38.90;;;;;;4953961;28;20370;-52
2022/12/20 06:42:24;;;;;;;;;;;21.60;38.80;;;;;;4952048;28;19918;-53
2022/12/20 06:44:49;;;;;;;;;;;21.60;38.80;;;;;;4953849;28;19911;-53
2022/12/20 06:47:15;;;;;;;;;;;21.60;38.90;;;;;;4953597;28;19959;-52
2022/12/20 06:49:40;;;;;;;;;;;21.60;38.90;;;;;;4953798;28;19925;-53
2022/12/20 06:52:06;;;;;;;;;;;21.60;39.00;;;;;;4954843;28;20057;-52
2022/12/20 06:54:31;;;;;;;;;;;21.60;39.00;;;;;;4953425;28;19919;-52
2022/12/20 06:56:56;;;;;;;;;;;21.50;39.00;;;;;;4953681;28;20020;-51
2022/12/20 06:59:22;;;;;;;;;;;21.60;39.00;;;;;;4953644;29;19910;-52
2022/12/20 07:01:47;;;;;;;;;;;21.60;39.00;;;;;;4952465;28;19918;-52
2022/12/20 07:04:13;;;;;;;;;;;21.60;39.10;;;;;;4951365;28;20012;-52
2022/12/20 07:06:38;;;;;;;;;;;21.50;39.00;;;;;;4950668;28;20021;-52
2022/12/20 07:09:04;;;;;;;;;;;21.50;39.10;;;;;;4952993;28;19914;-52
2022/12/20 07:11:29;;;;;;;;;;;21.40;39.20;;;;;;4952951;29;20331;-52
2022/12/20 07:13:55;;;;;;;;;;;21.40;39.30;;;;;;4951334;28;19921;-52
2022/12/20 07:16:21;;;;;;;;;;;21.40;39.40;;;;;;4953535;28;19915;-53
2022/12/20 07:18:49;;;;;;;;;;;21.50;39.30;;;;;;4951053;28;19925;-54
2022/12/20 07:21:16;;;;;;;;;;;21.50;39.20;;;;;;4946831;29;20448;-52
2022/12/20 07:23:41;;;;;;;;;;;21.50;39.20;;;;;;4934636;28;20050;-52
2022/12/20 07:26:08;;;;;;;;;;;21.50;39.20;;;;;;4934145;28;20002;-52
2022/12/20 07:28:33;;;;;;;;;;;21.60;39.10;;;;;;4948831;29;19915;-52
2022/12/20 07:30:59;;;;;;;;;;;21.50;39.10;;;;;;4951609;28;19933;-53
2022/12/20 07:33:25;;;;;;;;;;;21.60;39.20;;;;;;4947042;29;20387;-53
2022/12/20 07:35:50;;;;;;;;;;;21.50;39.20;;;;;;4934294;29;19911;-52
2022/12/20 07:38:16;;;;;;;;;;;21.60;39.20;;;;;;4945494;29;19914;-52
2022/12/20 07:40:41;;;;;;;;;;;21.60;39.10;;;;;;4951595;28;20362;-52
2022/12/20 07:43:10;;;;;;;;;;;21.60;39.30;;;;;;4998041;28;20013;-52
2022/12/20 07:45:36;;;;;;;;;;;21.50;39.30;;;;;;4952967;29;19942;-52
2022/12/20 07:48:02;;;;;;;;;;;21.50;39.40;;;;;;4953572;28;19911;-52
2022/12/20 07:50:28;;;;;;;;;;;21.40;39.50;;;;;;4952921;29;19914;-52
2022/12/20 07:52:53;;;;;;;;;;;21.50;39.60;;;;;;4988327;28;19919;-52
2022/12/20 07:55:19;;;;;;;;;;;21.40;39.50;;;;;;4949869;29;19914;-52
2022/12/20 07:57:55;;;;;;;;;;;21.40;39.60;;;;;;4950350;28;19925;-52
2022/12/20 08:00:20;;;;;;;;;;;21.30;39.80;;;;;;4958747;28;19921;-52
2022/12/20 08:02:47;;;;;;;;;;;21.40;39.80;;;;;;4951909;29;20383;-52
2022/12/20 08:05:12;;;;;;;;;;;21.30;39.70;;;;;;4948286;28;19922;-52
2022/12/20 08:07:38;;;;;;;;;;;21.40;40.00;;;;;;4949667;29;19918;-52
2022/12/20 08:10:04;;;;;;;;;;;21.60;39.60;;;;;;4949820;28;19929;-53
2022/12/20 08:12:30;;;;;;;;;;;21.90;39.00;;;;;;4935072;28;20329;-53
2022/12/20 08:14:56;;;;;;;;;;;22.30;38.40;;;;;;4955398;28;19919;-54
2022/12/20 08:17:21;;;;;;;;;;;22.60;38.00;;;;;;4951602;28;19937;-53
2022/12/20 08:19:49;;;;;;;;;;;22.80;37.70;;;;;;4947957;28;20686;-52
2022/12/20 08:22:15;;;;;;;;;;;23.00;37.50;;;;;;4951260;28;20436;-53
2022/12/20 08:24:40;;;;;;;;;;;23.10;37.30;;;;;;4950612;29;19961;-53
2022/12/20 08:27:05;;;;;;;;;;;23.20;37.20;;;;;;4945407;28;19921;-52
2022/12/20 08:29:31;;;;;;;;;;;23.30;37.20;;;;;;4950236;29;19995;-53
2022/12/20 08:31:56;;;;;;;;;;;23.30;37.00;;;;;;4951940;29;19972;-54
2022/12/20 08:34:22;;;;;;;;;;;23.30;37.00;;;;;;4949964;28;19921;-53
2022/12/20 08:36:48;;;;;;;;;;;23.40;37.10;;;;;;4947930;28;20009;-54
2022/12/20 08:39:14;;;;;;;;;;;23.40;37.00;;;;;;4949869;28;20006;-52
2022/12/20 08:41:40;;;;;;;;;;;23.50;36.90;;;;;;4951544;28;19922;-53
2022/12/20 08:44:05;;;;;;;;;;;23.50;36.80;;;;;;4947434;28;19915;-53
2022/12/20 08:46:31;;;;;;;;;;;23.50;36.80;;;;;;4950888;29;19915;-53
2022/12/20 08:48:56;;;;;;;;;;;23.50;36.90;;;;;;4950908;29;20306;-54
2022/12/20 08:51:21;;;;;;;;;;;23.60;36.90;;;;;;4952234;28;19922;-53
2022/12/20 08:53:47;;;;;;;;;;;23.60;37.00;;;;;;4952683;28;19965;-54
2022/12/20 08:56:13;;;;;;;;;;;23.60;37.10;;;;;;4951834;28;19923;-52
2022/12/20 08:58:39;;;;;;;;;;;23.70;37.00;;;;;;4950922;28;19918;-53
2022/12/20 09:01:05;;;;;;;;;;;23.70;37.10;;;;;;4952138;28;20423;-53
2022/12/20 09:03:31;;;;;;;;;;;23.70;37.00;;;;;;4958346;28;19926;-53
2022/12/20 09:05:57;;;;;;;;;;;23.70;37.00;;;;;;4954108;28;19927;-55
2022/12/20 09:08:22;;;;;;;;;;;23.70;36.80;;;;;;4948801;28;19929;-53
2022/12/20 09:10:48;;;;;;;;;;;23.70;36.90;;;;;;4951377;28;19983;-53
2022/12/20 09:13:13;;;;;;;;;;;23.70;37.00;;;;;;4951293;29;19918;-53
2022/12/20 09:15:38;;;;;;;;;;;23.70;36.90;;;;;;4948231;28;19919;-52
2022/12/20 09:18:04;;;;;;;;;;;23.70;36.90;;;;;;4950817;28;19914;-52
2022/12/20 09:20:30;;;;;;;;;;;23.70;36.90;;;;;;4950870;28;19915;-52
2022/12/20 09:22:56;;;;;;;;;;;23.80;37.00;;;;;;4948951;28;19925;-53
2022/12/20 09:25:22;;;;;;;;;;;23.70;37.10;;;;;;4951244;28;19918;-53
2022/12/20 09:27:47;;;;;;;;;;;23.80;37.40;;;;;;4953692;28;20397;-53
2022/12/20 09:30:13;;;;;;;;;;;23.80;37.50;;;;;;4952015;28;19923;-53
2022/12/20 09:32:38;;;;;;;;;;;23.80;37.70;;;;;;4950375;28;19922;-52
2022/12/20 09:35:04;;;;;;;;;;;23.80;37.80;;;;;;4942024;28;19983;-52
2022/12/20 09:37:30;;;;;;;;;;;23.80;37.90;;;;;;4949112;28;19913;-52
2022/12/20 09:39:56;;;;;;;;;;;23.80;37.80;;;;;;4962370;28;19925;-53
2022/12/20 09:42:21;;;;;;;;;;;23.80;37.80;;;;;;4946653;28;19915;-52
2022/12/20 09:44:47;;;;;;;;;;;23.80;37.90;;;;;;4929399;28;19972;-53
2022/12/20 09:47:19;;;;;;;;;;;23.90;37.90;;;;;;4943003;28;19933;-54
2022/12/20 09:49:46;;;;;;;;;;;23.90;37.90;;;;;;4954626;28;20013;-54
2022/12/20 09:52:17;;;;;;;;;;;23.90;37.90;;;;;;4968244;28;20005;-54
2022/12/20 09:54:48;;;;;;;;;;;23.80;37.90;;;;;;4952826;28;20305;-54
2022/12/20 09:57:17;;;;;;;;;;;23.90;38.10;;;;;;4953484;28;19964;-53
2022/12/20 09:59:43;;;;;;;;;;;23.80;38.00;;;;;;5002238;28;19922;-53
2022/12/20 10:02:09;;;;;;;;;;;23.90;38.00;;;;;;4949357;28;19920;-54
2022/12/20 10:04:34;;;;;;;;;;;23.90;37.90;;;;;;4945175;28;19924;-52
2022/12/20 10:07:15;;;;;;;;;;;23.90;37.90;;;;;;4960759;28;20005;-54
2022/12/20 10:09:43;;;;;;;;;;;23.90;37.90;;;;;;4942978;28;19921;-54
2022/12/20 10:12:31;;;;;;;;;;;23.90;37.90;;;;;;4955973;28;19918;-54
2022/12/20 10:15:03;;;;;;;;;;;24.00;37.80;;;;;;4933209;28;19915;-54
2022/12/20 10:17:48;;;;;;;;;;;24.00;37.90;;;;;;4991940;28;19921;-54
2022/12/20 10:20:18;;;;;;;;;;;23.90;37.80;;;;;;4950195;29;19958;-53
2022/12/20 10:22:53;;;;;;;;;;;24.00;37.90;;;;;;4948550;28;20005;-53
2022/12/20 10:25:21;;;;;;;;;;;23.90;37.80;;;;;;4958081;28;19918;-53
2022/12/20 10:27:47;;;;;;;;;;;24.00;37.90;;;;;;4950465;28;19914;-54
2022/12/20 10:30:13;;;;;;;;;;;24.00;37.90;;;;;;4950134;29;19918;-54
2022/12/20 10:32:38;;;;;;;;;;;24.00;37.80;;;;;;4950548;28;19915;-54
2022/12/20 10:35:10;;;;;;;;;;;24.00;37.70;;;;;;4951248;28;19917;-53
2022/12/20 10:37:35;;;;;;;;;;;24.00;37.80;;;;;;4964233;28;20027;-54
2022/12/20 10:40:01;;;;;;;;;;;24.00;37.80;;;;;;4961955;28;19910;-54
2022/12/20 10:42:34;;;;;;;;;;;24.00;37.80;;;;;;4946960;28;19925;-54
2022/12/20 10:45:00;;;;;;;;;;;24.00;37.70;;;;;;4999664;28;20362;-54
2022/12/20 10:47:29;;;;;;;;;;;24.00;37.70;;;;;;4952299;28;20009;-54
2022/12/20 10:50:06;;;;;;;;;;;24.10;37.60;;;;;;4952897;28;20005;-54
2022/12/20 10:52:31;;;;;;;;;;;24.10;37.60;;;;;;4966808;28;20297;-53
2022/12/20 10:54:57;;;;;;;;;;;24.10;37.80;;;;;;4965101;28;19925;-52
2022/12/20 10:57:26;;;;;;;;;;;24.10;37.60;;;;;;4957973;28;20362;-53
2022/12/20 10:59:52;;;;;;;;;;;24.10;37.60;;;;;;4971451;28;19915;-53
2022/12/20 11:02:24;;;;;;;;;;;24.10;37.70;;;;;;4964142;28;19997;-53
2022/12/20 11:05:10;;;;;;;;;;;24.10;37.70;;;;;;4956085;28;20354;-53
2022/12/20 11:07:36;;;;;;;;;;;24.10;37.60;;;;;;4963538;28;20015;-55
2022/12/20 11:10:22;;;;;;;;;;;24.20;37.60;;;;;;4953262;28;20390;-54
2022/12/20 11:12:53;;;;;;;;;;;24.20;37.60;;;;;;4952048;28;19919;-54
2022/12/20 11:15:20;;;;;;;;;;;24.20;37.50;;;;;;4949186;28;19965;-54
2022/12/20 11:17:47;;;;;;;;;;;24.20;37.50;;;;;;4953635;28;19934;-54
2022/12/20 11:20:31;;;;;;;;;;;24.20;37.40;;;;;;4939462;28;19952;-54
2022/12/20 11:23:16;;;;;;;;;;;24.20;37.40;;;;;;4946485;28;20013;-53
2022/12/20 11:26:00;;;;;;;;;;;24.20;37.40;;;;;;4934155;29;19911;-54
2022/12/20 11:28:28;;;;;;;;;;;24.20;37.40;;;;;;4936674;28;19999;-54
2022/12/20 11:30:56;;;;;;;;;;;24.20;37.40;;;;;;4953740;28;20108;-54
2022/12/20 11:33:40;;;;;;;;;;;24.20;37.40;;;;;;4950363;28;19918;-54
2022/12/20 11:36:22;;;;;;;;;;;24.20;37.30;;;;;;4951236;28;20286;-54
2022/12/20 11:39:13;;;;;;;;;;;24.30;37.40;;;;;;4953275;29;19919;-54
2022/12/20 11:41:44;;;;;;;;;;;24.30;37.40;;;;;;4971764;28;19974;-54
2022/12/20 11:44:12;;;;;;;;;;;24.30;37.40;;;;;;4952448;28;19915;-54
2022/12/20 11:46:40;;;;;;;;;;;24.30;37.40;;;;;;4949779;28;19956;-54
2022/12/20 11:49:25;;;;;;;;;;;24.30;37.30;;;;;;4951946;28;19937;-55
2022/12/20 11:52:02;;;;;;;;;;;24.30;37.30;;;;;;4972803;28;19924;-54
2022/12/20 11:54:28;;;;;;;;;;;24.30;37.40;;;;;;4952297;28;20367;-52
2022/12/20 11:56:57;;;;;;;;;;;24.30;37.30;;;;;;4953693;28;20274;-53
2022/12/20 11:59:26;;;;;;;;;;;24.30;37.30;;;;;;4953269;28;19914;-52
2022/12/20 12:02:11;;;;;;;;;;;24.20;37.50;;;;;;4937796;28;19914;-54
2022/12/20 12:04:57;;;;;;;;;;;24.00;37.80;;;;;;4954954;28;20440;-54
2022/12/20 12:07:32;;;;;;;;;;;23.70;38.30;;;;;;4949777;28;19969;-53
2022/12/20 12:10:17;;;;;;;;;;;23.30;38.90;;;;;;4952194;28;19929;-54
2022/12/20 12:12:43;;;;;;;;;;;23.00;39.60;;;;;;4921592;28;19921;-54
2022/12/20 12:15:21;;;;;;;;;;;22.60;40.10;;;;;;4949746;28;19919;-53
2022/12/20 12:17:51;;;;;;;;;;;22.40;40.60;;;;;;4953210;28;20362;-54
2022/12/20 12:20:35;;;;;;;;;;;22.20;41.00;;;;;;4938347;28;20040;-54
2022/12/20 12:23:12;;;;;;;;;;;22.00;41.40;;;;;;4942952;28;19969;-53
2022/12/20 12:25:37;;;;;;;;;;;21.80;41.60;;;;;;4954590;28;20302;-53
2022/12/20 12:28:03;;;;;;;;;;;21.70;42.10;;;;;;4944905;28;19934;-53
2022/12/20 12:30:28;;;;;;;;;;;21.50;42.30;;;;;;4950566;28;20312;-54
2022/12/20 12:32:54;;;;;;;;;;;21.40;42.60;;;;;;4942966;28;19911;-54
2022/12/20 12:35:22;;;;;;;;;;;21.20;42.90;;;;;;4935235;28;19964;-54
2022/12/20 12:37:57;;;;;;;;;;;21.10;43.10;;;;;;4934138;28;19926;-54
2022/12/20 12:40:41;;;;;;;;;;;21.00;43.30;;;;;;4951477;28;19957;-54
2022/12/20 12:43:16;;;;;;;;;;;20.90;43.30;;;;;;4954632;28;19929;-54
2022/12/20 12:45:48;;;;;;;;;;;20.80;43.50;;;;;;4952209;28;19985;-53
2022/12/20 12:48:13;;;;;;;;;;;20.70;43.80;;;;;;4953278;28;20386;-54
2022/12/20 12:50:41;;;;;;;;;;;20.60;43.70;;;;;;4935155;28;19918;-54
2022/12/20 12:53:11;;;;;;;;;;;20.80;43.50;;;;;;4963471;28;19915;-53
2022/12/20 12:55:49;;;;;;;;;;;21.10;43.10;;;;;;4994492;28;19910;-52
2022/12/20 12:58:21;;;;;;;;;;;21.20;42.80;;;;;;4970670;28;20294;-53
2022/12/20 13:00:52;;;;;;;;;;;21.60;42.30;;;;;;4947596;29;19914;-54
2022/12/20 13:03:37;;;;;;;;;;;21.80;41.70;;;;;;4950881;28;20384;-52
2022/12/20 13:06:21;;;;;;;;;;;22.00;41.50;;;;;;4951519;28;19922;-53
2022/12/20 13:08:48;;;;;;;;;;;22.10;41.20;;;;;;4951732;28;19910;-53
2022/12/20 13:11:14;;;;;;;;;;;22.10;41.20;;;;;;4951993;28;20024;-53
2022/12/20 13:13:40;;;;;;;;;;;22.00;41.40;;;;;;4933735;28;19922;-53
2022/12/20 13:16:08;;;;;;;;;;;21.90;41.50;;;;;;4951342;29;19911;-52
2022/12/20 13:18:33;;;;;;;;;;;21.70;41.70;;;;;;4951148;28;19946;-54
2022/12/20 13:21:25;;;;;;;;;;;21.70;41.90;;;;;;4950421;28;20343;-53
2022/12/20 13:24:10;;;;;;;;;;;21.60;42.10;;;;;;4949283;28;19914;-53
2022/12/20 13:26:55;;;;;;;;;;;21.40;42.30;;;;;;4942292;29;20008;-53
2022/12/20 13:29:22;;;;;;;;;;;21.40;42.50;;;;;;4950478;28;19915;-54
2022/12/20 13:31:48;;;;;;;;;;;21.30;42.60;;;;;;4934988;28;19957;-54
2022/12/20 13:34:43;;;;;;;;;;;21.20;42.80;;;;;;4949841;28;20409;-54
2022/12/20 13:37:25;;;;;;;;;;;21.00;42.90;;;;;;4959101;28;19937;-53
2022/12/20 13:39:50;;;;;;;;;;;20.90;43.20;;;;;;4950281;28;19972;-53
2022/12/20 13:42:18;;;;;;;;;;;20.90;43.50;;;;;;4950958;29;19918;-53
2022/12/20 13:44:44;;;;;;;;;;;21.00;43.40;;;;;;4933693;28;19915;-53
2022/12/20 13:47:24;;;;;;;;;;;21.10;43.00;;;;;;4933989;28;20278;-53
2022/12/20 13:49:51;;;;;;;;;;;21.30;42.70;;;;;;4950457;28;19968;-54
2022/12/20 13:52:29;;;;;;;;;;;21.50;42.30;;;;;;4949232;28;20334;-52
2022/12/20 13:54:56;;;;;;;;;;;21.70;42.10;;;;;;4930876;28;19911;-52
2022/12/20 13:57:32;;;;;;;;;;;21.80;41.70;;;;;;4950025;28;20397;-52
2022/12/20 14:00:01;;;;;;;;;;;21.80;41.60;;;;;;4948862;28;19923;-53
2022/12/20 14:02:28;;;;;;;;;;;21.80;42.00;;;;;;4949581;28;19965;-52
2022/12/20 14:05:04;;;;;;;;;;;21.60;42.20;;;;;;4890234;28;1734894;-53
2022/12/20 14:07:29;;;;;;;;;;;21.50;42.50;;;;;;4969454;28;19922;-54
2022/12/20 14:09:56;;;;;;;;;;;21.30;42.80;;;;;;4934542;28;20370;-53
2022/12/20 14:12:21;;;;;;;;;;;21.10;43.00;;;;;;4950883;29;20409;-53
2022/12/20 14:14:48;;;;;;;;;;;21.00;43.30;;;;;;4950393;28;19919;-53
2022/12/20 14:17:19;;;;;;;;;;;21.00;43.50;;;;;;4948596;28;20009;-53
2022/12/20 14:19:44;;;;;;;;;;;21.00;43.60;;;;;;4949475;29;20310;-52
2022/12/20 14:22:10;;;;;;;;;;;21.00;43.70;;;;;;4943116;28;19914;-53
2022/12/20 14:24:37;;;;;;;;;;;21.00;43.70;;;;;;4954160;28;19968;-53
2022/12/20 14:27:03;;;;;;;;;;;21.20;43.60;;;;;;4930455;28;20021;-54
2022/12/20 14:29:28;;;;;;;;;;;21.30;43.30;;;;;;4955082;28;20009;-52
2022/12/20 14:31:54;;;;;;;;;;;21.50;43.10;;;;;;4953684;28;19918;-52